Atlantic Tramp — V7SM5 — position and weather

sailwx.info

Track history (hours):
 
Tides and Currents Weather Stations Pressure Air Temp Water Temp Dewpoint Dewpoint Depression Visibility Wind Speed Wind Dir Waves Ship Positions

Atlantic Tramp

Last reported at 2014-Sep-13 00:32 UTC. Time now 2014-Oct-26 07:45 UTC.
Position N 29°25' W 094°50'.
Warning: this ship's position is 43 days out of date.

Length 180 m; draft 6 m.

Type: Cargo ship. MMSI: 538003682.

Date/timePositionNaut miles runAvg speedWind from/ knotsBaromVisibWave heightAir tempDewpointWater temp
2014-Sep-13 00:32N 29°25' W 094°50'1212.5
2014-Sep-12 23:34N 29°36' W 094°57'10 9.6
2014-Sep-12 22:33N 29°44' W 095°03'6 5.7
2014-Sep-12 21:33N 29°45' W 095°10'1 1.3
2014-Sep-12 20:30N 29°45' W 095°11'0 0.0
2014-Sep-12 13:06N 29°45' W 095°11'0 0.0
2014-Sep-12 12:06N 29°45' W 095°11'0 0.0
2014-Sep-12 11:33N 29°45' W 095°11'0 0.0
2014-Sep-12 10:30N 29°45' W 095°11'0 0.0
2014-Sep-12 09:27N 29°45' W 095°11'0 0.0
2014-Sep-12 08:30N 29°45' W 095°11'0 0.0
2014-Sep-12 06:30N 29°45' W 095°11'0 0.0
2014-Sep-12 04:06N 29°45' W 095°11'0 0.0
2014-Sep-12 03:12N 29°45' W 095°11'0 0.0
2014-Sep-12 02:30N 29°45' W 095°11'0 0.0
2014-Sep-12 01:33N 29°45' W 095°11'0 0.0
2014-Sep-12 00:33N 29°45' W 095°11'0 0.0
2014-Sep-11 23:31N 29°45' W 095°11'0 0.0
2014-Sep-11 22:29N 29°45' W 095°11'0 0.0
2014-Sep-11 21:32N 29°45' W 095°11'0 0.0
2014-Sep-11 20:33N 29°45' W 095°11'0 0.0
2014-Sep-11 19:32N 29°45' W 095°11'0 0.0
2014-Sep-11 18:27N 29°45' W 095°11'0 0.0
2014-Sep-11 17:31N 29°45' W 095°11'0 0.0
2014-Sep-11 16:33N 29°45' W 095°11'0 0.0
2014-Sep-11 15:28N 29°45' W 095°11'0 0.0
2014-Sep-11 14:27N 29°45' W 095°11'0 0.0
2014-Sep-11 13:32N 29°45' W 095°11'0 0.0
2014-Sep-11 12:33N 29°45' W 095°11'0 0.0
2014-Sep-11 11:33N 29°45' W 095°11'0 0.0
2014-Sep-11 10:32N 29°45' W 095°11'0 0.0
2014-Sep-11 09:29N 29°45' W 095°11'0 0.0
2014-Sep-11 07:33N 29°45' W 095°11'0 0.0
2014-Sep-11 06:33N 29°45' W 095°11'0 0.0
2014-Sep-11 05:33N 29°45' W 095°11'0 0.0
2014-Sep-11 04:33N 29°45' W 095°11'0 0.0
2014-Sep-11 03:28N 29°45' W 095°11'0 0.0
2014-Sep-11 02:33N 29°45' W 095°11'0 0.0
2014-Sep-11 00:28N 29°45' W 095°11'1 0.3
2014-Sep-10 20:31N 29°45' W 095°10'5 5.4
2014-Sep-10 19:33N 29°45' W 095°04'8 7.6
2014-Sep-10 18:33N 29°39' W 094°58'1111.0
2014-Sep-10 17:33N 29°30' W 094°52'1110.5
2014-Sep-10 16:33N 29°21' W 094°46'226 4.8
2014-Sep-08 17:33N 30°03' W 090°31'3 2.8
2014-Sep-08 16:33N 30°03' W 090°34'0 0.0
2014-Sep-08 15:33N 30°03' W 090°34'0 0.0
2014-Sep-08 14:33N 30°03' W 090°34'0 0.0
2014-Sep-08 13:33N 30°03' W 090°34'0 0.0
2014-Sep-08 12:33N 30°03' W 090°34'0 0.0
2014-Sep-08 11:33N 30°03' W 090°34'0 0.0
2014-Sep-08 10:33N 30°03' W 090°34'0 0.0
2014-Sep-08 09:33N 30°03' W 090°34'0 0.0
2014-Sep-08 08:33N 30°03' W 090°34'0 0.0
2014-Sep-08 07:33N 30°03' W 090°34'0 0.0
2014-Sep-08 06:33N 30°03' W 090°34'0 0.0
2014-Sep-08 05:33N 30°03' W 090°34'0 0.0
2014-Sep-08 04:33N 30°03' W 090°34'0 0.0
2014-Sep-08 03:33N 30°03' W 090°34'0 0.0
2014-Sep-08 02:33N 30°03' W 090°34'0 0.0
2014-Sep-08 01:33N 30°03' W 090°34'0 0.0
2014-Sep-08 00:33N 30°03' W 090°34'0 0.0
2014-Sep-07 23:33N 30°03' W 090°34'0 0.0
2014-Sep-07 22:34N 30°03' W 090°34'0 0.0
2014-Sep-07 21:33N 30°03' W 090°34'0 0.0
2014-Sep-07 20:33N 30°03' W 090°34'0 0.0
2014-Sep-07 19:33N 30°03' W 090°34'0 0.0
2014-Sep-07 18:33N 30°03' W 090°34'0 0.0
2014-Sep-07 17:33N 30°03' W 090°34'0 0.0
2014-Sep-07 16:33N 30°03' W 090°34'0 0.0
2014-Sep-07 15:33N 30°03' W 090°34'0 0.0
2014-Sep-07 14:33N 30°03' W 090°34'0 0.0
2014-Sep-07 13:33N 30°03' W 090°34'0 0.0
2014-Sep-07 12:33N 30°03' W 090°34'0 0.0
2014-Sep-07 11:33N 30°03' W 090°34'0 0.0
2014-Sep-07 10:33N 30°03' W 090°34'0 0.0
2014-Sep-07 09:33N 30°03' W 090°34'0 0.0
2014-Sep-07 08:33N 30°03' W 090°34'0 0.0
2014-Sep-07 07:33N 30°03' W 090°34'0 0.0
2014-Sep-07 06:33N 30°03' W 090°34'0 0.0
2014-Sep-07 05:33N 30°03' W 090°34'0 0.0
2014-Sep-07 04:33N 30°03' W 090°34'0 0.0
2014-Sep-07 03:33N 30°03' W 090°34'0 0.0
2014-Sep-07 02:33N 30°03' W 090°34'0 0.0
2014-Sep-07 01:33N 30°03' W 090°34'0 0.0
2014-Sep-07 00:33N 30°03' W 090°34'0 0.0
2014-Sep-06 23:33N 30°03' W 090°34'0 0.0
2014-Sep-06 22:33N 30°03' W 090°34'0 0.0
2014-Sep-06 21:33N 30°03' W 090°34'0 0.0
2014-Sep-06 20:33N 30°03' W 090°34'0 0.0
2014-Sep-06 19:33N 30°03' W 090°34'0 0.0
2014-Sep-06 18:33N 30°03' W 090°34'0 0.0
2014-Sep-06 17:33N 30°03' W 090°34'0 0.0
2014-Sep-06 16:33N 30°03' W 090°34'0 0.0
2014-Sep-06 15:33N 30°03' W 090°34'0 0.0
2014-Sep-06 14:33N 30°03' W 090°34'0 0.0
2014-Sep-06 13:33N 30°03' W 090°34'0 0.0
2014-Sep-06 12:33N 30°03' W 090°34'0 0.0
2014-Sep-06 11:33N 30°03' W 090°34'0 0.0
2014-Sep-06 10:33N 30°03' W 090°34'0 0.0
2014-Sep-06 09:33N 30°03' W 090°34'0 0.0
2014-Sep-06 08:33N 30°03' W 090°34'0 0.0
2014-Sep-06 07:33N 30°03' W 090°34'0 0.0
2014-Sep-06 06:33N 30°03' W 090°34'0 0.0
2014-Sep-06 05:33N 30°03' W 090°34'0 0.0
2014-Sep-06 04:33N 30°03' W 090°34'0 0.0
2014-Sep-06 03:33N 30°03' W 090°34'0 0.0
2014-Sep-06 02:33N 30°03' W 090°34'0 0.0
2014-Sep-06 01:33N 30°03' W 090°34'0 0.0
2014-Sep-06 00:33N 30°03' W 090°34'0 0.0
2014-Sep-05 23:33N 30°03' W 090°34'0 0.0
2014-Sep-05 22:33N 30°03' W 090°34'0 0.0
2014-Sep-05 21:33N 30°03' W 090°34'0 0.0
2014-Sep-05 20:33N 30°03' W 090°34'  
Track history (hours):
 
Tides and Currents Weather Stations Pressure Air Temp Water Temp Dewpoint Dewpoint Depression Visibility Wind Speed Wind Dir Waves Ship Positions

Atlantic Tramp

Last reported at 2014-Sep-13 00:32 UTC. Time now 2014-Oct-26 07:45 UTC.
Position N 29°25' W 094°50'.
Warning: this ship's position is 43 days out of date.

Length 180 m; draft 6 m.

Type: Cargo ship. MMSI: 538003682.

Date/timePositionNaut miles runAvg speedWind from/ knotsBaromVisibWave heightAir tempDewpointWater temp
2014-Sep-13 00:32N 29°25' W 094°50'1212.5
2014-Sep-12 23:34N 29°36' W 094°57'10 9.6
2014-Sep-12 22:33N 29°44' W 095°03'6 5.7
2014-Sep-12 21:33N 29°45' W 095°10'1 1.3
2014-Sep-12 20:30N 29°45' W 095°11'0 0.0
2014-Sep-12 13:06N 29°45' W 095°11'0 0.0
2014-Sep-12 12:06N 29°45' W 095°11'0 0.0
2014-Sep-12 11:33N 29°45' W 095°11'0 0.0
2014-Sep-12 10:30N 29°45' W 095°11'0 0.0
2014-Sep-12 09:27N 29°45' W 095°11'0 0.0
2014-Sep-12 08:30N 29°45' W 095°11'0 0.0
2014-Sep-12 06:30N 29°45' W 095°11'0 0.0
2014-Sep-12 04:06N 29°45' W 095°11'0 0.0
2014-Sep-12 03:12N 29°45' W 095°11'0 0.0
2014-Sep-12 02:30N 29°45' W 095°11'0 0.0
2014-Sep-12 01:33N 29°45' W 095°11'0 0.0
2014-Sep-12 00:33N 29°45' W 095°11'0 0.0
2014-Sep-11 23:31N 29°45' W 095°11'0 0.0
2014-Sep-11 22:29N 29°45' W 095°11'0 0.0
2014-Sep-11 21:32N 29°45' W 095°11'0 0.0
2014-Sep-11 20:33N 29°45' W 095°11'0 0.0
2014-Sep-11 19:32N 29°45' W 095°11'0 0.0
2014-Sep-11 18:27N 29°45' W 095°11'0 0.0
2014-Sep-11 17:31N 29°45' W 095°11'0 0.0
2014-Sep-11 16:33N 29°45' W 095°11'0 0.0
2014-Sep-11 15:28N 29°45' W 095°11'0 0.0
2014-Sep-11 14:27N 29°45' W 095°11'0 0.0
2014-Sep-11 13:32N 29°45' W 095°11'0 0.0
2014-Sep-11 12:33N 29°45' W 095°11'0 0.0
2014-Sep-11 11:33N 29°45' W 095°11'0 0.0
2014-Sep-11 10:32N 29°45' W 095°11'0 0.0
2014-Sep-11 09:29N 29°45' W 095°11'0 0.0
2014-Sep-11 07:33N 29°45' W 095°11'0 0.0
2014-Sep-11 06:33N 29°45' W 095°11'0 0.0
2014-Sep-11 05:33N 29°45' W 095°11'0 0.0
2014-Sep-11 04:33N 29°45' W 095°11'0 0.0
2014-Sep-11 03:28N 29°45' W 095°11'0 0.0
2014-Sep-11 02:33N 29°45' W 095°11'0 0.0
2014-Sep-11 00:28N 29°45' W 095°11'1 0.3
2014-Sep-10 20:31N 29°45' W 095°10'5 5.4
2014-Sep-10 19:33N 29°45' W 095°04'8 7.6
2014-Sep-10 18:33N 29°39' W 094°58'1111.0
2014-Sep-10 17:33N 29°30' W 094°52'1110.5
2014-Sep-10 16:33N 29°21' W 094°46'226 4.8
2014-Sep-08 17:33N 30°03' W 090°31'3 2.8
2014-Sep-08 16:33N 30°03' W 090°34'0 0.0
2014-Sep-08 15:33N 30°03' W 090°34'0 0.0
2014-Sep-08 14:33N 30°03' W 090°34'0 0.0
2014-Sep-08 13:33N 30°03' W 090°34'0 0.0
2014-Sep-08 12:33N 30°03' W 090°34'0 0.0
2014-Sep-08 11:33N 30°03' W 090°34'0 0.0
2014-Sep-08 10:33N 30°03' W 090°34'0 0.0
2014-Sep-08 09:33N 30°03' W 090°34'0 0.0
2014-Sep-08 08:33N 30°03' W 090°34'0 0.0
2014-Sep-08 07:33N 30°03' W 090°34'0 0.0
2014-Sep-08 06:33N 30°03' W 090°34'0 0.0
2014-Sep-08 05:33N 30°03' W 090°34'0 0.0
2014-Sep-08 04:33N 30°03' W 090°34'0 0.0
2014-Sep-08 03:33N 30°03' W 090°34'0 0.0
2014-Sep-08 02:33N 30°03' W 090°34'0 0.0
2014-Sep-08 01:33N 30°03' W 090°34'0 0.0
2014-Sep-08 00:33N 30°03' W 090°34'0 0.0
2014-Sep-07 23:33N 30°03' W 090°34'0 0.0
2014-Sep-07 22:34N 30°03' W 090°34'0 0.0
2014-Sep-07 21:33N 30°03' W 090°34'0 0.0
2014-Sep-07 20:33N 30°03' W 090°34'0 0.0
2014-Sep-07 19:33N 30°03' W 090°34'0 0.0
2014-Sep-07 18:33N 30°03' W 090°34'0 0.0
2014-Sep-07 17:33N 30°03' W 090°34'0 0.0
2014-Sep-07 16:33N 30°03' W 090°34'0 0.0
2014-Sep-07 15:33N 30°03' W 090°34'0 0.0
2014-Sep-07 14:33N 30°03' W 090°34'0 0.0
2014-Sep-07 13:33N 30°03' W 090°34'0 0.0
2014-Sep-07 12:33N 30°03' W 090°34'0 0.0
2014-Sep-07 11:33N 30°03' W 090°34'0 0.0
2014-Sep-07 10:33N 30°03' W 090°34'0 0.0
2014-Sep-07 09:33N 30°03' W 090°34'0 0.0
2014-Sep-07 08:33N 30°03' W 090°34'0 0.0
2014-Sep-07 07:33N 30°03' W 090°34'0 0.0
2014-Sep-07 06:33N 30°03' W 090°34'0 0.0
2014-Sep-07 05:33N 30°03' W 090°34'0 0.0
2014-Sep-07 04:33N 30°03' W 090°34'0 0.0
2014-Sep-07 03:33N 30°03' W 090°34'0 0.0
2014-Sep-07 02:33N 30°03' W 090°34'0 0.0
2014-Sep-07 01:33N 30°03' W 090°34'0 0.0
2014-Sep-07 00:33N 30°03' W 090°34'0 0.0
2014-Sep-06 23:33N 30°03' W 090°34'0 0.0
2014-Sep-06 22:33N 30°03' W 090°34'0 0.0
2014-Sep-06 21:33N 30°03' W 090°34'0 0.0
2014-Sep-06 20:33N 30°03' W 090°34'0 0.0
2014-Sep-06 19:33N 30°03' W 090°34'0 0.0
2014-Sep-06 18:33N 30°03' W 090°34'0 0.0
2014-Sep-06 17:33N 30°03' W 090°34'0 0.0
2014-Sep-06 16:33N 30°03' W 090°34'0 0.0
2014-Sep-06 15:33N 30°03' W 090°34'0 0.0
2014-Sep-06 14:33N 30°03' W 090°34'0 0.0
2014-Sep-06 13:33N 30°03' W 090°34'0 0.0
2014-Sep-06 12:33N 30°03' W 090°34'0 0.0
2014-Sep-06 11:33N 30°03' W 090°34'0 0.0
2014-Sep-06 10:33N 30°03' W 090°34'0 0.0
2014-Sep-06 09:33N 30°03' W 090°34'0 0.0
2014-Sep-06 08:33N 30°03' W 090°34'0 0.0
2014-Sep-06 07:33N 30°03' W 090°34'0 0.0
2014-Sep-06 06:33N 30°03' W 090°34'0 0.0
2014-Sep-06 05:33N 30°03' W 090°34'0 0.0
2014-Sep-06 04:33N 30°03' W 090°34'0 0.0
2014-Sep-06 03:33N 30°03' W 090°34'0 0.0
2014-Sep-06 02:33N 30°03' W 090°34'0 0.0
2014-Sep-06 01:33N 30°03' W 090°34'0 0.0
2014-Sep-06 00:33N 30°03' W 090°34'0 0.0
2014-Sep-05 23:33N 30°03' W 090°34'0 0.0
2014-Sep-05 22:33N 30°03' W 090°34'0 0.0
2014-Sep-05 21:33N 30°03' W 090°34'0 0.0
2014-Sep-05 20:33N 30°03' W 090°34'  

Dump ship's entire track history